sensor_id;sensor_type;location;lat;lon;timestamp;P1;durP1;ratioP1;P2;durP2;ratioP2
65073;SDS011;52218;51.224;-2.328;2022-08-19T00:01:43;0.20;;;0.10;;
65073;SDS011;52218;51.224;-2.328;2022-08-19T00:05:33;0.65;;;0.20;;
65073;SDS011;52218;51.224;-2.328;2022-08-19T00:09:16;0.10;;;0.10;;
65073;SDS011;52218;51.224;-2.328;2022-08-19T00:13:00;0.10;;;0.10;;
65073;SDS011;52218;51.224;-2.328;2022-08-19T00:16:42;0.30;;;0.10;;
65073;SDS011;52218;51.224;-2.328;2022-08-19T00:20:26;0.90;;;0.20;;
65073;SDS011;52218;51.224;-2.328;2022-08-19T00:24:09;1.45;;;0.10;;
65073;SDS011;52218;51.224;-2.328;2022-08-19T00:27:52;0.22;;;0.10;;
65073;SDS011;52218;51.224;-2.328;2022-08-19T00:31:37;0.10;;;0.10;;
65073;SDS011;52218;51.224;-2.328;2022-08-19T00:35:19;0.20;;;0.10;;
65073;SDS011;52218;51.224;-2.328;2022-08-19T00:39:01;0.13;;;0.10;;
65073;SDS011;52218;51.224;-2.328;2022-08-19T00:42:43;0.13;;;0.10;;
65073;SDS011;52218;51.224;-2.328;2022-08-19T00:46:26;0.10;;;0.00;;
65073;SDS011;52218;51.224;-2.328;2022-08-19T00:50:10;0.20;;;0.00;;
65073;SDS011;52218;51.224;-2.328;2022-08-19T00:53:54;0.00;;;0.00;;
65073;SDS011;52218;51.224;-2.328;2022-08-19T00:57:39;0.00;;;0.00;;
65073;SDS011;52218;51.224;-2.328;2022-08-19T01:01:23;0.55;;;0.30;;
65073;SDS011;52218;51.224;-2.328;2022-08-19T01:05:06;0.20;;;0.10;;
65073;SDS011;52218;51.224;-2.328;2022-08-19T01:08:53;0.40;;;0.20;;
65073;SDS011;52218;51.224;-2.328;2022-08-19T01:12:36;0.30;;;0.10;;
65073;SDS011;52218;51.224;-2.328;2022-08-19T01:16:19;0.98;;;0.10;;
65073;SDS011;52218;51.224;-2.328;2022-08-19T01:20:04;0.32;;;0.00;;
65073;SDS011;52218;51.224;-2.328;2022-08-19T01:23:48;0.00;;;0.00;;
65073;SDS011;52218;51.224;-2.328;2022-08-19T01:27:38;0.10;;;0.00;;
65073;SDS011;52218;51.224;-2.328;2022-08-19T01:31:26;0.13;;;0.10;;
65073;SDS011;52218;51.224;-2.328;2022-08-19T01:35:13;0.22;;;0.05;;
65073;SDS011;52218;51.224;-2.328;2022-08-19T01:38:58;0.43;;;0.10;;
65073;SDS011;52218;51.224;-2.328;2022-08-19T01:42:42;0.80;;;0.10;;
65073;SDS011;52218;51.224;-2.328;2022-08-19T01:46:24;0.45;;;0.10;;
65073;SDS011;52218;51.224;-2.328;2022-08-19T01:50:07;0.10;;;0.00;;
65073;SDS011;52218;51.224;-2.328;2022-08-19T01:53:51;0.40;;;0.10;;
65073;SDS011;52218;51.224;-2.328;2022-08-19T01:57:33;0.40;;;0.10;;
65073;SDS011;52218;51.224;-2.328;2022-08-19T02:01:16;1.88;;;0.10;;
65073;SDS011;52218;51.224;-2.328;2022-08-19T02:04:58;2.22;;;0.10;;
65073;SDS011;52218;51.224;-2.328;2022-08-19T02:08:40;1.05;;;0.20;;
65073;SDS011;52218;51.224;-2.328;2022-08-19T02:12:22;0.77;;;0.17;;
65073;SDS011;52218;51.224;-2.328;2022-08-19T02:16:04;0.30;;;0.10;;
65073;SDS011;52218;51.224;-2.328;2022-08-19T02:19:46;0.68;;;0.20;;
65073;SDS011;52218;51.224;-2.328;2022-08-19T02:23:30;0.22;;;0.10;;
65073;SDS011;52218;51.224;-2.328;2022-08-19T02:27:13;0.93;;;0.20;;
65073;SDS011;52218;51.224;-2.328;2022-08-19T02:30:55;1.75;;;0.30;;
65073;SDS011;52218;51.224;-2.328;2022-08-19T02:34:37;0.95;;;0.20;;
65073;SDS011;52218;51.224;-2.328;2022-08-19T02:38:19;0.75;;;0.10;;
65073;SDS011;52218;51.224;-2.328;2022-08-19T02:42:07;1.17;;;0.20;;
65073;SDS011;52218;51.224;-2.328;2022-08-19T02:45:50;0.82;;;0.20;;
65073;SDS011;52218;51.224;-2.328;2022-08-19T02:49:32;0.65;;;0.20;;
65073;SDS011;52218;51.224;-2.328;2022-08-19T02:53:15;1.02;;;0.30;;
65073;SDS011;52218;51.224;-2.328;2022-08-19T02:56:57;0.90;;;0.30;;
65073;SDS011;52218;51.224;-2.328;2022-08-19T03:00:46;1.52;;;0.30;;
65073;SDS011;52218;51.224;-2.328;2022-08-19T03:04:33;1.67;;;0.30;;
65073;SDS011;52218;51.224;-2.328;2022-08-19T03:08:15;1.60;;;0.30;;
65073;SDS011;52218;51.224;-2.328;2022-08-19T03:11:58;1.40;;;0.40;;
65073;SDS011;52218;51.224;-2.328;2022-08-19T03:15:41;2.80;;;0.63;;
65073;SDS011;52218;51.224;-2.328;2022-08-19T03:19:24;3.03;;;0.80;;
65073;SDS011;52218;51.224;-2.328;2022-08-19T03:23:06;0.90;;;0.30;;
65073;SDS011;52218;51.224;-2.328;2022-08-19T03:26:49;1.85;;;0.40;;
65073;SDS011;52218;51.224;-2.328;2022-08-19T03:30:39;3.20;;;0.60;;
65073;SDS011;52218;51.224;-2.328;2022-08-19T03:34:25;3.45;;;0.50;;
65073;SDS011;52218;51.224;-2.328;2022-08-19T03:38:09;2.50;;;0.50;;
65073;SDS011;52218;51.224;-2.328;2022-08-19T03:41:52;2.33;;;0.60;;
65073;SDS011;52218;51.224;-2.328;2022-08-19T03:46:17;2.72;;;0.50;;
65073;SDS011;52218;51.224;-2.328;2022-08-19T03:50:01;2.03;;;0.50;;
65073;SDS011;52218;51.224;-2.328;2022-08-19T03:53:44;2.97;;;0.80;;
65073;SDS011;52218;51.224;-2.328;2022-08-19T03:57:27;3.92;;;0.90;;
65073;SDS011;52218;51.224;-2.328;2022-08-19T04:01:14;3.33;;;0.77;;
65073;SDS011;52218;51.224;-2.328;2022-08-19T04:04:58;6.90;;;1.10;;
65073;SDS011;52218;51.224;-2.328;2022-08-19T04:08:41;3.25;;;0.68;;
65073;SDS011;52218;51.224;-2.328;2022-08-19T04:12:24;4.97;;;1.00;;
65073;SDS011;52218;51.224;-2.328;2022-08-19T04:16:06;2.95;;;0.85;;
65073;SDS011;52218;51.224;-2.328;2022-08-19T04:19:51;5.80;;;1.10;;
65073;SDS011;52218;51.224;-2.328;2022-08-19T04:23:34;6.32;;;1.20;;
65073;SDS011;52218;51.224;-2.328;2022-08-19T04:27:25;6.05;;;1.13;;
65073;SDS011;52218;51.224;-2.328;2022-08-19T04:31:11;3.55;;;0.85;;
65073;SDS011;52218;51.224;-2.328;2022-08-19T04:34:58;3.25;;;1.00;;
65073;SDS011;52218;51.224;-2.328;2022-08-19T04:38:58;4.18;;;0.98;;
65073;SDS011;52218;51.224;-2.328;2022-08-19T04:42:46;5.10;;;0.90;;
65073;SDS011;52218;51.224;-2.328;2022-08-19T04:46:29;3.97;;;1.25;;
65073;SDS011;52218;51.224;-2.328;2022-08-19T04:50:31;5.43;;;1.20;;
65073;SDS011;52218;51.224;-2.328;2022-08-19T04:54:14;4.32;;;1.42;;
65073;SDS011;52218;51.224;-2.328;2022-08-19T04:58:18;6.60;;;1.27;;
65073;SDS011;52218;51.224;-2.328;2022-08-19T05:02:00;5.50;;;1.20;;
65073;SDS011;52218;51.224;-2.328;2022-08-19T05:05:45;9.20;;;1.83;;
65073;SDS011;52218;51.224;-2.328;2022-08-19T05:09:31;7.18;;;1.73;;
65073;SDS011;52218;51.224;-2.328;2022-08-19T05:13:33;4.93;;;1.50;;
65073;SDS011;52218;51.224;-2.328;2022-08-19T05:17:15;6.85;;;1.42;;
65073;SDS011;52218;51.224;-2.328;2022-08-19T05:21:08;8.13;;;1.45;;
65073;SDS011;52218;51.224;-2.328;2022-08-19T05:25:12;7.18;;;1.65;;
65073;SDS011;52218;51.224;-2.328;2022-08-19T05:28:56;7.60;;;1.30;;
65073;SDS011;52218;51.224;-2.328;2022-08-19T05:32:39;7.57;;;1.25;;
65073;SDS011;52218;51.224;-2.328;2022-08-19T05:36:21;7.07;;;1.50;;
65073;SDS011;52218;51.224;-2.328;2022-08-19T05:40:03;6.47;;;1.17;;
65073;SDS011;52218;51.224;-2.328;2022-08-19T05:43:45;9.88;;;1.60;;
65073;SDS011;52218;51.224;-2.328;2022-08-19T05:47:27;8.38;;;1.77;;
65073;SDS011;52218;51.224;-2.328;2022-08-19T05:51:09;9.77;;;1.90;;
65073;SDS011;52218;51.224;-2.328;2022-08-19T05:54:52;4.47;;;1.10;;
65073;SDS011;52218;51.224;-2.328;2022-08-19T05:58:37;7.90;;;1.50;;
65073;SDS011;52218;51.224;-2.328;2022-08-19T06:02:19;7.20;;;1.40;;
65073;SDS011;52218;51.224;-2.328;2022-08-19T06:06:01;7.40;;;1.60;;
65073;SDS011;52218;51.224;-2.328;2022-08-19T06:09:43;7.25;;;1.50;;
65073;SDS011;52218;51.224;-2.328;2022-08-19T06:13:42;6.30;;;1.40;;
65073;SDS011;52218;51.224;-2.328;2022-08-19T06:17:26;4.95;;;1.52;;
65073;SDS011;52218;51.224;-2.328;2022-08-19T06:21:08;4.63;;;1.30;;
65073;SDS011;52218;51.224;-2.328;2022-08-19T06:24:50;7.43;;;1.60;;
65073;SDS011;52218;51.224;-2.328;2022-08-19T06:28:33;7.43;;;1.73;;
65073;SDS011;52218;51.224;-2.328;2022-08-19T06:32:16;4.20;;;1.08;;
65073;SDS011;52218;51.224;-2.328;2022-08-19T06:36:00;4.85;;;1.15;;
65073;SDS011;52218;51.224;-2.328;2022-08-19T06:39:43;5.07;;;1.40;;
65073;SDS011;52218;51.224;-2.328;2022-08-19T06:43:25;6.80;;;1.70;;
65073;SDS011;52218;51.224;-2.328;2022-08-19T06:47:10;5.57;;;1.20;;
65073;SDS011;52218;51.224;-2.328;2022-08-19T06:51:05;6.00;;;1.20;;
65073;SDS011;52218;51.224;-2.328;2022-08-19T06:54:49;4.97;;;1.30;;
65073;SDS011;52218;51.224;-2.328;2022-08-19T06:58:37;4.40;;;1.35;;
65073;SDS011;52218;51.224;-2.328;2022-08-19T07:02:19;4.30;;;1.20;;
65073;SDS011;52218;51.224;-2.328;2022-08-19T07:06:10;4.50;;;1.30;;
65073;SDS011;52218;51.224;-2.328;2022-08-19T07:10:13;4.38;;;1.20;;
65073;SDS011;52218;51.224;-2.328;2022-08-19T07:13:57;4.22;;;1.23;;
65073;SDS011;52218;51.224;-2.328;2022-08-19T07:17:39;4.78;;;1.20;;
65073;SDS011;52218;51.224;-2.328;2022-08-19T07:21:24;3.85;;;1.10;;
65073;SDS011;52218;51.224;-2.328;2022-08-19T07:25:11;4.40;;;1.13;;
65073;SDS011;52218;51.224;-2.328;2022-08-19T07:28:55;2.95;;;0.95;;
65073;SDS011;52218;51.224;-2.328;2022-08-19T07:32:39;4.88;;;1.27;;
65073;SDS011;52218;51.224;-2.328;2022-08-19T07:36:23;5.30;;;1.08;;
65073;SDS011;52218;51.224;-2.328;2022-08-19T07:40:13;4.72;;;1.00;;
65073;SDS011;52218;51.224;-2.328;2022-08-19T07:43:55;4.80;;;1.05;;
65073;SDS011;52218;51.224;-2.328;2022-08-19T07:47:38;4.45;;;1.00;;
65073;SDS011;52218;51.224;-2.328;2022-08-19T07:51:31;5.78;;;1.20;;
65073;SDS011;52218;51.224;-2.328;2022-08-19T07:55:20;4.75;;;1.20;;
65073;SDS011;52218;51.224;-2.328;2022-08-19T07:59:23;2.67;;;0.80;;
65073;SDS011;52218;51.224;-2.328;2022-08-19T08:03:05;3.35;;;1.05;;
65073;SDS011;52218;51.224;-2.328;2022-08-19T08:06:47;2.70;;;0.93;;
65073;SDS011;52218;51.224;-2.328;2022-08-19T08:10:48;5.38;;;0.98;;
65073;SDS011;52218;51.224;-2.328;2022-08-19T08:14:42;4.97;;;1.10;;
65073;SDS011;52218;51.224;-2.328;2022-08-19T08:18:28;2.95;;;0.88;;
65073;SDS011;52218;51.224;-2.328;2022-08-19T08:22:11;5.85;;;1.00;;
65073;SDS011;52218;51.224;-2.328;2022-08-19T08:26:16;3.13;;;0.82;;
65073;SDS011;52218;51.224;-2.328;2022-08-19T08:29:59;5.22;;;1.17;;
65073;SDS011;52218;51.224;-2.328;2022-08-19T08:33:43;4.78;;;1.02;;
65073;SDS011;52218;51.224;-2.328;2022-08-19T08:37:25;3.67;;;1.02;;
65073;SDS011;52218;51.224;-2.328;2022-08-19T08:48:54;5.07;;;1.10;;
65073;SDS011;52218;51.224;-2.328;2022-08-19T08:52:46;4.38;;;0.90;;
65073;SDS011;52218;51.224;-2.328;2022-08-19T08:56:32;4.72;;;1.10;;
65073;SDS011;52218;51.224;-2.328;2022-08-19T09:00:16;4.57;;;0.98;;
65073;SDS011;52218;51.224;-2.328;2022-08-19T09:04:02;3.30;;;1.13;;
65073;SDS011;52218;51.224;-2.328;2022-08-19T09:07:53;3.70;;;0.77;;
65073;SDS011;52218;51.224;-2.328;2022-08-19T09:16:30;2.83;;;0.77;;
65073;SDS011;52218;51.224;-2.328;2022-08-19T09:20:24;2.65;;;0.90;;
65073;SDS011;52218;51.224;-2.328;2022-08-19T09:24:09;4.13;;;1.10;;
65073;SDS011;52218;51.224;-2.328;2022-08-19T09:28:11;3.13;;;1.00;;
65073;SDS011;52218;51.224;-2.328;2022-08-19T09:32:02;3.42;;;0.90;;
65073;SDS011;52218;51.224;-2.328;2022-08-19T09:36:06;4.13;;;1.05;;
65073;SDS011;52218;51.224;-2.328;2022-08-19T09:39:49;3.38;;;1.15;;
65073;SDS011;52218;51.224;-2.328;2022-08-19T09:43:32;4.32;;;1.00;;
65073;SDS011;52218;51.224;-2.328;2022-08-19T09:47:28;3.78;;;1.25;;
65073;SDS011;52218;51.224;-2.328;2022-08-19T09:51:12;5.65;;;1.10;;
65073;SDS011;52218;51.224;-2.328;2022-08-19T09:54:56;2.95;;;0.90;;
65073;SDS011;52218;51.224;-2.328;2022-08-19T09:58:39;5.32;;;1.10;;
65073;SDS011;52218;51.224;-2.328;2022-08-19T10:02:21;3.47;;;0.90;;
65073;SDS011;52218;51.224;-2.328;2022-08-19T10:06:09;3.30;;;1.00;;
65073;SDS011;52218;51.224;-2.328;2022-08-19T10:09:57;3.80;;;1.10;;
65073;SDS011;52218;51.224;-2.328;2022-08-19T10:13:39;4.13;;;1.30;;
65073;SDS011;52218;51.224;-2.328;2022-08-19T10:17:21;5.35;;;1.10;;
65073;SDS011;52218;51.224;-2.328;2022-08-19T10:21:13;3.88;;;1.00;;
65073;SDS011;52218;51.224;-2.328;2022-08-19T10:25:00;2.53;;;0.82;;
65073;SDS011;52218;51.224;-2.328;2022-08-19T10:28:43;2.45;;;0.90;;
65073;SDS011;52218;51.224;-2.328;2022-08-19T10:32:27;3.78;;;1.02;;
65073;SDS011;52218;51.224;-2.328;2022-08-19T10:36:18;3.58;;;1.00;;
65073;SDS011;52218;51.224;-2.328;2022-08-19T10:40:05;3.72;;;0.88;;
65073;SDS011;52218;51.224;-2.328;2022-08-19T10:43:52;2.87;;;1.00;;
65073;SDS011;52218;51.224;-2.328;2022-08-19T10:47:36;4.93;;;1.23;;
65073;SDS011;52218;51.224;-2.328;2022-08-19T10:51:18;2.45;;;0.93;;
65073;SDS011;52218;51.224;-2.328;2022-08-19T10:55:28;4.13;;;1.30;;
65073;SDS011;52218;51.224;-2.328;2022-08-19T10:59:28;3.78;;;1.10;;
65073;SDS011;52218;51.224;-2.328;2022-08-19T11:03:16;2.70;;;1.00;;
65073;SDS011;52218;51.224;-2.328;2022-08-19T11:06:58;4.68;;;1.30;;
65073;SDS011;52218;51.224;-2.328;2022-08-19T11:10:43;3.67;;;1.08;;
65073;SDS011;52218;51.224;-2.328;2022-08-19T11:14:30;4.60;;;1.33;;
65073;SDS011;52218;51.224;-2.328;2022-08-19T11:18:14;5.32;;;1.25;;
65073;SDS011;52218;51.224;-2.328;2022-08-19T11:21:58;3.88;;;1.10;;
65073;SDS011;52218;51.224;-2.328;2022-08-19T11:25:43;4.85;;;1.40;;
65073;SDS011;52218;51.224;-2.328;2022-08-19T11:29:26;4.10;;;1.33;;
65073;SDS011;52218;51.224;-2.328;2022-08-19T11:33:09;3.58;;;0.90;;
65073;SDS011;52218;51.224;-2.328;2022-08-19T11:36:52;4.70;;;1.00;;
65073;SDS011;52218;51.224;-2.328;2022-08-19T11:40:35;3.60;;;1.10;;
65073;SDS011;52218;51.224;-2.328;2022-08-19T11:44:18;5.28;;;1.08;;
65073;SDS011;52218;51.224;-2.328;2022-08-19T11:48:00;3.83;;;1.10;;
65073;SDS011;52218;51.224;-2.328;2022-08-19T11:51:43;3.75;;;1.20;;
65073;SDS011;52218;51.224;-2.328;2022-08-19T11:55:25;2.67;;;1.00;;
65073;SDS011;52218;51.224;-2.328;2022-08-19T11:59:07;3.90;;;1.35;;
65073;SDS011;52218;51.224;-2.328;2022-08-19T12:02:55;3.10;;;0.90;;
65073;SDS011;52218;51.224;-2.328;2022-08-19T12:06:37;6.03;;;0.95;;
65073;SDS011;52218;51.224;-2.328;2022-08-19T12:10:20;4.18;;;1.25;;
65073;SDS011;52218;51.224;-2.328;2022-08-19T12:17:56;5.78;;;1.17;;
65073;SDS011;52218;51.224;-2.328;2022-08-19T12:21:38;3.78;;;0.90;;
65073;SDS011;52218;51.224;-2.328;2022-08-19T12:25:21;2.45;;;0.90;;
65073;SDS011;52218;51.224;-2.328;2022-08-19T12:29:04;3.75;;;1.02;;
65073;SDS011;52218;51.224;-2.328;2022-08-19T12:32:45;5.90;;;1.15;;
65073;SDS011;52218;51.224;-2.328;2022-08-19T12:36:28;3.05;;;0.95;;
65073;SDS011;52218;51.224;-2.328;2022-08-19T12:40:10;4.78;;;1.10;;
65073;SDS011;52218;51.224;-2.328;2022-08-19T12:43:53;3.97;;;1.17;;
65073;SDS011;52218;51.224;-2.328;2022-08-19T12:47:35;2.88;;;0.80;;
65073;SDS011;52218;51.224;-2.328;2022-08-19T12:51:20;2.33;;;0.87;;
65073;SDS011;52218;51.224;-2.328;2022-08-19T12:55:03;5.18;;;1.13;;
65073;SDS011;52218;51.224;-2.328;2022-08-19T12:58:47;5.65;;;1.08;;
65073;SDS011;52218;51.224;-2.328;2022-08-19T13:02:32;4.75;;;1.40;;
65073;SDS011;52218;51.224;-2.328;2022-08-19T13:06:19;4.63;;;1.13;;
65073;SDS011;52218;51.224;-2.328;2022-08-19T13:10:01;3.65;;;1.10;;
65073;SDS011;52218;51.224;-2.328;2022-08-19T13:13:45;3.35;;;1.00;;
65073;SDS011;52218;51.224;-2.328;2022-08-19T13:17:28;5.00;;;1.20;;
65073;SDS011;52218;51.224;-2.328;2022-08-19T13:21:10;3.97;;;1.20;;
65073;SDS011;52218;51.224;-2.328;2022-08-19T13:24:54;3.50;;;0.95;;
65073;SDS011;52218;51.224;-2.328;2022-08-19T13:28:36;4.13;;;1.02;;
65073;SDS011;52218;51.224;-2.328;2022-08-19T13:32:36;4.32;;;1.10;;
65073;SDS011;52218;51.224;-2.328;2022-08-19T13:36:37;3.55;;;1.10;;
65073;SDS011;52218;51.224;-2.328;2022-08-19T13:40:22;5.13;;;1.10;;
65073;SDS011;52218;51.224;-2.328;2022-08-19T13:44:07;4.28;;;1.10;;
65073;SDS011;52218;51.224;-2.328;2022-08-19T13:47:50;5.05;;;1.40;;
65073;SDS011;52218;51.224;-2.328;2022-08-19T13:51:40;6.30;;;1.30;;
65073;SDS011;52218;51.224;-2.328;2022-08-19T13:55:23;4.68;;;1.20;;
65073;SDS011;52218;51.224;-2.328;2022-08-19T13:59:06;4.15;;;1.30;;
65073;SDS011;52218;51.224;-2.328;2022-08-19T14:02:50;4.55;;;0.93;;
65073;SDS011;52218;51.224;-2.328;2022-08-19T14:06:33;3.72;;;1.08;;
65073;SDS011;52218;51.224;-2.328;2022-08-19T14:10:15;4.15;;;1.27;;
65073;SDS011;52218;51.224;-2.328;2022-08-19T14:13:58;5.25;;;1.27;;
65073;SDS011;52218;51.224;-2.328;2022-08-19T14:17:43;5.35;;;1.55;;
65073;SDS011;52218;51.224;-2.328;2022-08-19T14:21:27;4.63;;;1.10;;
65073;SDS011;52218;51.224;-2.328;2022-08-19T14:25:11;4.30;;;1.20;;
65073;SDS011;52218;51.224;-2.328;2022-08-19T14:28:56;4.22;;;1.08;;
65073;SDS011;52218;51.224;-2.328;2022-08-19T14:32:39;3.15;;;1.08;;
65073;SDS011;52218;51.224;-2.328;2022-08-19T14:36:21;3.95;;;1.00;;
65073;SDS011;52218;51.224;-2.328;2022-08-19T14:40:03;3.90;;;1.20;;
65073;SDS011;52218;51.224;-2.328;2022-08-19T14:43:46;3.50;;;0.98;;
65073;SDS011;52218;51.224;-2.328;2022-08-19T14:47:31;2.72;;;1.17;;
65073;SDS011;52218;51.224;-2.328;2022-08-19T14:51:13;2.90;;;1.00;;
65073;SDS011;52218;51.224;-2.328;2022-08-19T14:54:55;2.97;;;0.80;;
65073;SDS011;52218;51.224;-2.328;2022-08-19T14:58:38;2.40;;;0.90;;
65073;SDS011;52218;51.224;-2.328;2022-08-19T15:02:23;2.83;;;0.82;;
65073;SDS011;52218;51.224;-2.328;2022-08-19T15:06:15;3.08;;;0.90;;
65073;SDS011;52218;51.224;-2.328;2022-08-19T15:09:57;3.53;;;0.80;;
65073;SDS011;52218;51.224;-2.328;2022-08-19T15:13:40;2.85;;;0.98;;
65073;SDS011;52218;51.224;-2.328;2022-08-19T15:17:22;3.75;;;1.02;;
65073;SDS011;52218;51.224;-2.328;2022-08-19T15:21:25;3.92;;;0.95;;
65073;SDS011;52218;51.224;-2.328;2022-08-19T15:25:09;2.50;;;0.70;;
65073;SDS011;52218;51.224;-2.328;2022-08-19T15:28:54;2.95;;;0.65;;
65073;SDS011;52218;51.224;-2.328;2022-08-19T15:32:37;3.47;;;0.85;;
65073;SDS011;52218;51.224;-2.328;2022-08-19T15:36:20;3.03;;;0.70;;
65073;SDS011;52218;51.224;-2.328;2022-08-19T15:40:02;1.55;;;0.60;;
65073;SDS011;52218;51.224;-2.328;2022-08-19T15:43:46;1.50;;;0.40;;
65073;SDS011;52218;51.224;-2.328;2022-08-19T15:47:29;2.33;;;0.70;;
65073;SDS011;52218;51.224;-2.328;2022-08-19T15:51:15;1.17;;;0.40;;
65073;SDS011;52218;51.224;-2.328;2022-08-19T15:54:58;1.88;;;0.52;;
65073;SDS011;52218;51.224;-2.328;2022-08-19T15:58:41;2.35;;;0.55;;
65073;SDS011;52218;51.224;-2.328;2022-08-19T16:02:41;1.75;;;0.50;;
65073;SDS011;52218;51.224;-2.328;2022-08-19T16:06:48;1.48;;;0.50;;
65073;SDS011;52218;51.224;-2.328;2022-08-19T16:10:32;3.28;;;0.50;;
65073;SDS011;52218;51.224;-2.328;2022-08-19T16:14:15;2.10;;;0.63;;
65073;SDS011;52218;51.224;-2.328;2022-08-19T16:17:59;3.40;;;0.68;;
65073;SDS011;52218;51.224;-2.328;2022-08-19T16:25:28;2.85;;;0.75;;
65073;SDS011;52218;51.224;-2.328;2022-08-19T16:29:10;2.15;;;0.70;;
65073;SDS011;52218;51.224;-2.328;2022-08-19T16:32:53;1.75;;;0.50;;
65073;SDS011;52218;51.224;-2.328;2022-08-19T16:36:35;3.70;;;0.88;;
65073;SDS011;52218;51.224;-2.328;2022-08-19T16:40:22;2.55;;;0.80;;
65073;SDS011;52218;51.224;-2.328;2022-08-19T16:44:05;2.15;;;0.68;;
65073;SDS011;52218;51.224;-2.328;2022-08-19T16:47:48;3.10;;;0.70;;
65073;SDS011;52218;51.224;-2.328;2022-08-19T16:51:30;2.45;;;0.73;;
65073;SDS011;52218;51.224;-2.328;2022-08-19T16:55:14;2.15;;;0.60;;
65073;SDS011;52218;51.224;-2.328;2022-08-19T16:58:57;4.00;;;0.90;;
65073;SDS011;52218;51.224;-2.328;2022-08-19T17:02:40;2.47;;;0.70;;
65073;SDS011;52218;51.224;-2.328;2022-08-19T17:06:23;3.42;;;0.73;;
65073;SDS011;52218;51.224;-2.328;2022-08-19T17:10:07;2.38;;;0.65;;
65073;SDS011;52218;51.224;-2.328;2022-08-19T17:13:49;4.50;;;0.75;;
65073;SDS011;52218;51.224;-2.328;2022-08-19T17:17:31;2.72;;;0.70;;
65073;SDS011;52218;51.224;-2.328;2022-08-19T17:21:14;3.90;;;0.73;;
65073;SDS011;52218;51.224;-2.328;2022-08-19T17:24:56;3.25;;;0.80;;
65073;SDS011;52218;51.224;-2.328;2022-08-19T17:28:38;1.85;;;0.55;;
65073;SDS011;52218;51.224;-2.328;2022-08-19T17:32:23;2.55;;;0.65;;
65073;SDS011;52218;51.224;-2.328;2022-08-19T17:36:05;2.45;;;0.50;;
65073;SDS011;52218;51.224;-2.328;2022-08-19T17:39:48;1.83;;;0.50;;
65073;SDS011;52218;51.224;-2.328;2022-08-19T17:43:31;2.58;;;0.52;;
65073;SDS011;52218;51.224;-2.328;2022-08-19T17:47:18;5.72;;;0.50;;
65073;SDS011;52218;51.224;-2.328;2022-08-19T17:51:11;2.85;;;0.80;;
65073;SDS011;52218;51.224;-2.328;2022-08-19T17:55:06;1.65;;;0.50;;
65073;SDS011;52218;51.224;-2.328;2022-08-19T17:58:50;2.25;;;0.60;;
65073;SDS011;52218;51.224;-2.328;2022-08-19T18:06:34;1.83;;;0.60;;
65073;SDS011;52218;51.224;-2.328;2022-08-19T18:10:20;3.30;;;0.60;;
65073;SDS011;52218;51.224;-2.328;2022-08-19T18:14:14;2.85;;;0.80;;
65073;SDS011;52218;51.224;-2.328;2022-08-19T18:17:56;3.65;;;0.80;;
65073;SDS011;52218;51.224;-2.328;2022-08-19T18:21:39;3.63;;;0.68;;
65073;SDS011;52218;51.224;-2.328;2022-08-19T18:25:22;2.35;;;0.60;;
65073;SDS011;52218;51.224;-2.328;2022-08-19T18:29:06;4.15;;;0.90;;
65073;SDS011;52218;51.224;-2.328;2022-08-19T18:32:50;3.38;;;0.77;;
65073;SDS011;52218;51.224;-2.328;2022-08-19T18:36:33;2.42;;;0.70;;
65073;SDS011;52218;51.224;-2.328;2022-08-19T18:40:33;2.45;;;0.70;;
65073;SDS011;52218;51.224;-2.328;2022-08-19T18:44:34;2.75;;;0.63;;
65073;SDS011;52218;51.224;-2.328;2022-08-19T18:48:40;1.77;;;0.50;;
65073;SDS011;52218;51.224;-2.328;2022-08-19T18:52:40;3.53;;;0.63;;
65073;SDS011;52218;51.224;-2.328;2022-08-19T18:56:22;3.35;;;0.75;;
65073;SDS011;52218;51.224;-2.328;2022-08-19T19:00:09;3.28;;;0.77;;
65073;SDS011;52218;51.224;-2.328;2022-08-19T19:03:53;4.38;;;0.80;;
65073;SDS011;52218;51.224;-2.328;2022-08-19T19:07:36;2.92;;;0.80;;
65073;SDS011;52218;51.224;-2.328;2022-08-19T19:11:25;3.30;;;1.02;;
65073;SDS011;52218;51.224;-2.328;2022-08-19T19:15:10;6.15;;;1.02;;
65073;SDS011;52218;51.224;-2.328;2022-08-19T19:18:52;2.08;;;0.68;;
65073;SDS011;52218;51.224;-2.328;2022-08-19T19:22:35;4.15;;;1.13;;
65073;SDS011;52218;51.224;-2.328;2022-08-19T19:26:17;3.72;;;0.90;;
65073;SDS011;52218;51.224;-2.328;2022-08-19T19:29:59;3.22;;;1.00;;
65073;SDS011;52218;51.224;-2.328;2022-08-19T19:33:41;3.42;;;0.88;;
65073;SDS011;52218;51.224;-2.328;2022-08-19T19:37:24;3.53;;;0.93;;
65073;SDS011;52218;51.224;-2.328;2022-08-19T19:41:06;2.67;;;0.70;;
65073;SDS011;52218;51.224;-2.328;2022-08-19T19:44:49;3.05;;;0.68;;
65073;SDS011;52218;51.224;-2.328;2022-08-19T19:48:32;2.30;;;0.52;;
65073;SDS011;52218;51.224;-2.328;2022-08-19T19:52:16;4.13;;;0.68;;
65073;SDS011;52218;51.224;-2.328;2022-08-19T19:55:58;2.72;;;0.65;;
65073;SDS011;52218;51.224;-2.328;2022-08-19T19:59:40;1.45;;;0.52;;
65073;SDS011;52218;51.224;-2.328;2022-08-19T20:03:32;2.08;;;0.45;;
65073;SDS011;52218;51.224;-2.328;2022-08-19T20:07:14;2.35;;;0.63;;
65073;SDS011;52218;51.224;-2.328;2022-08-19T20:10:59;3.33;;;0.90;;
65073;SDS011;52218;51.224;-2.328;2022-08-19T20:14:42;2.00;;;0.50;;
65073;SDS011;52218;51.224;-2.328;2022-08-19T20:18:24;1.45;;;0.45;;
65073;SDS011;52218;51.224;-2.328;2022-08-19T20:22:06;2.35;;;0.70;;
65073;SDS011;52218;51.224;-2.328;2022-08-19T20:25:49;3.83;;;0.50;;
65073;SDS011;52218;51.224;-2.328;2022-08-19T20:29:31;3.15;;;0.90;;
65073;SDS011;52218;51.224;-2.328;2022-08-19T20:33:21;2.88;;;0.80;;
65073;SDS011;52218;51.224;-2.328;2022-08-19T20:37:03;3.55;;;0.73;;
65073;SDS011;52218;51.224;-2.328;2022-08-19T20:40:45;2.92;;;0.60;;
65073;SDS011;52218;51.224;-2.328;2022-08-19T20:44:28;3.42;;;0.80;;
65073;SDS011;52218;51.224;-2.328;2022-08-19T20:48:09;4.47;;;0.73;;
65073;SDS011;52218;51.224;-2.328;2022-08-19T20:51:53;3.90;;;0.63;;
65073;SDS011;52218;51.224;-2.328;2022-08-19T20:55:38;4.25;;;1.00;;
65073;SDS011;52218;51.224;-2.328;2022-08-19T20:59:24;4.37;;;0.97;;
65073;SDS011;52218;51.224;-2.328;2022-08-19T21:03:07;4.85;;;0.90;;
65073;SDS011;52218;51.224;-2.328;2022-08-19T21:06:49;10.18;;;1.00;;
65073;SDS011;52218;51.224;-2.328;2022-08-19T21:10:31;7.50;;;1.30;;
65073;SDS011;52218;51.224;-2.328;2022-08-19T21:14:13;8.95;;;1.30;;
65073;SDS011;52218;51.224;-2.328;2022-08-19T21:17:57;7.22;;;1.73;;
65073;SDS011;52218;51.224;-2.328;2022-08-19T21:21:39;4.10;;;1.05;;
65073;SDS011;52218;51.224;-2.328;2022-08-19T21:25:21;3.80;;;1.00;;
65073;SDS011;52218;51.224;-2.328;2022-08-19T21:29:03;5.82;;;1.05;;
65073;SDS011;52218;51.224;-2.328;2022-08-19T21:32:45;4.13;;;1.10;;
65073;SDS011;52218;51.224;-2.328;2022-08-19T21:36:32;4.85;;;1.05;;
65073;SDS011;52218;51.224;-2.328;2022-08-19T21:40:15;3.85;;;0.90;;
65073;SDS011;52218;51.224;-2.328;2022-08-19T21:43:57;4.25;;;0.90;;
65073;SDS011;52218;51.224;-2.328;2022-08-19T21:47:39;4.68;;;0.80;;
65073;SDS011;52218;51.224;-2.328;2022-08-19T21:51:21;5.78;;;0.98;;
65073;SDS011;52218;51.224;-2.328;2022-08-19T21:55:04;3.95;;;0.85;;
65073;SDS011;52218;51.224;-2.328;2022-08-19T21:58:47;5.75;;;0.90;;
65073;SDS011;52218;51.224;-2.328;2022-08-19T22:02:29;4.15;;;0.82;;
65073;SDS011;52218;51.224;-2.328;2022-08-19T22:06:11;3.85;;;0.85;;
65073;SDS011;52218;51.224;-2.328;2022-08-19T22:09:53;4.38;;;0.90;;
65073;SDS011;52218;51.224;-2.328;2022-08-19T22:13:35;4.60;;;1.48;;
65073;SDS011;52218;51.224;-2.328;2022-08-19T22:17:20;7.68;;;2.08;;
65073;SDS011;52218;51.224;-2.328;2022-08-19T22:21:03;8.23;;;1.45;;
65073;SDS011;52218;51.224;-2.328;2022-08-19T22:24:52;4.95;;;1.67;;
65073;SDS011;52218;51.224;-2.328;2022-08-19T22:28:40;4.78;;;1.48;;
65073;SDS011;52218;51.224;-2.328;2022-08-19T22:32:23;6.15;;;1.60;;
65073;SDS011;52218;51.224;-2.328;2022-08-19T22:36:09;4.27;;;1.50;;
65073;SDS011;52218;51.224;-2.328;2022-08-19T22:39:51;4.93;;;1.77;;